Time;durP1;ratioP1;P1;durP2;ratioP2;P2;SDS_P1;SDS_P2;PMS_P1;PMS_P2;Temp;Humidity;BMP_temperature;BMP_pressure;BME280_temperature;BME280_humidity;BME280_pressure;Samples;Min_cycle;Max_cycle;Signal;HPM_P1;HPM_P2
2022/07/03 00:02:06;;;;;;;2.90;1.77;;;;;;;;;;5011404;28;20340;-62
2022/07/03 00:04:31;;;;;;;2.85;1.80;;;;;;;;;;5011415;28;20419;-62
2022/07/03 00:06:56;;;;;;;3.50;2.00;;;;;;;;;;5011312;28;20371;-62
2022/07/03 00:09:22;;;;;;;6.03;1.90;;;;;;;;;;4993299;28;20490;-62
2022/07/03 00:11:48;;;;;;;3.03;1.80;;;;;;;;;;5011428;28;20511;-62
2022/07/03 00:14:13;;;;;;;4.15;1.95;;;;;;;;;;5011769;28;20416;-62
2022/07/03 00:16:38;;;;;;;3.55;1.98;;;;;;;;;;5010802;28;20435;-62
2022/07/03 00:19:04;;;;;;;2.60;1.80;;;;;;;;;;5012024;28;20442;-62
2022/07/03 00:21:45;;;;;;;4.53;1.52;;;;;;;;;;5011182;28;20323;-62
2022/07/03 00:24:18;;;;;;;2.03;1.42;;;;;;;;;;5011694;28;20048;-62
2022/07/03 00:26:45;;;;;;;3.63;1.88;;;;;;;;;;4993586;28;20359;-62
2022/07/03 00:29:10;;;;;;;3.20;1.85;;;;;;;;;;4992997;28;20446;-62
2022/07/03 00:31:36;;;;;;;3.33;1.65;;;;;;;;;;5011144;28;20171;-62
2022/07/03 00:34:02;;;;;;;2.00;1.50;;;;;;;;;;4993571;28;20312;-62
2022/07/03 00:36:35;;;;;;;2.92;2.15;;;;;;;;;;5011128;28;20095;-62
2022/07/03 00:39:01;;;;;;;2.15;1.60;;;;;;;;;;5010659;28;20055;-62
2022/07/03 00:41:28;;;;;;;2.35;1.75;;;;;;;;;;5012623;28;20459;-62
2022/07/03 00:43:54;;;;;;;2.55;1.38;;;;;;;;;;5011007;28;20324;-62
2022/07/03 00:46:22;;;;;;;2.42;1.40;;;;;;;;;;5011338;28;20427;-63
2022/07/03 00:48:48;;;;;;;3.47;1.85;;;;;;;;;;5010814;28;20431;-62
2022/07/03 00:51:17;;;;;;;2.42;1.55;;;;;;;;;;5011291;28;20319;-62
2022/07/03 00:53:46;;;;;;;5.40;2.05;;;;;;;;;;5010908;28;20403;-63
2022/07/03 00:56:13;;;;;;;3.63;2.03;;;;;;;;;;5010500;28;20280;-62
2022/07/03 00:58:38;;;;;;;3.42;1.88;;;;;;;;;;5010850;28;20382;-62
2022/07/03 01:01:04;;;;;;;2.70;1.58;;;;;;;;;;4980156;28;20433;-63
2022/07/03 01:03:33;;;;;;;4.63;1.88;;;;;;;;;;4964039;28;20371;-62
2022/07/03 01:06:03;;;;;;;2.33;1.65;;;;;;;;;;4990941;28;20435;-62
2022/07/03 01:08:43;;;;;;;1.67;1.38;;;;;;;;;;4990651;28;20143;-64
2022/07/03 01:11:18;;;;;;;2.92;1.65;;;;;;;;;;4972881;28;20343;-62
2022/07/03 01:13:54;;;;;;;2.58;1.90;;;;;;;;;;4973806;28;20431;-62
2022/07/03 01:16:42;;;;;;;3.30;2.20;;;;;;;;;;4990886;28;20426;-62
2022/07/03 01:19:24;;;;;;;3.13;1.60;;;;;;;;;;4972301;28;20455;-65
2022/07/03 01:22:08;;;;;;;4.35;1.67;;;;;;;;;;4990274;28;20395;-62
2022/07/03 01:25:18;;;;;;;3.22;1.70;;;;;;;;;;4990342;28;20558;-62
2022/07/03 01:28:00;;;;;;;3.05;1.55;;;;;;;;;;4967301;28;20475;-64
2022/07/03 01:30:27;;;;;;;5.03;2.15;;;;;;;;;;4989563;28;20471;-62
2022/07/03 01:32:59;;;;;;;3.33;1.60;;;;;;;;;;4992120;28;20432;-62
2022/07/03 01:35:40;;;;;;;1.75;1.50;;;;;;;;;;4972520;28;20414;-64
2022/07/03 01:38:08;;;;;;;3.25;1.73;;;;;;;;;;4989995;28;20343;-62
2022/07/03 01:40:34;;;;;;;;;;;;;;;;;;4990599;28;20420;-62
2022/07/03 01:43:03;;;;;;;3.17;1.70;;;;;;;;;;4990408;28;20235;-62
2022/07/03 01:45:31;;;;;;;3.60;2.08;;;;;;;;;;4972802;28;20029;-62
2022/07/03 01:47:58;;;;;;;3.13;1.80;;;;;;;;;;4989617;28;20029;-63
2022/07/03 01:50:24;;;;;;;2.95;1.67;;;;;;;;;;4988970;28;20506;-67
2022/07/03 01:52:50;;;;;;;2.90;1.60;;;;;;;;;;4972633;28;20025;-62
2022/07/03 01:55:16;;;;;;;2.38;1.70;;;;;;;;;;4989913;28;20297;-62
2022/07/03 01:57:48;;;;;;;1.92;1.58;;;;;;;;;;4989947;28;20025;-62
2022/07/03 02:00:17;;;;;;;1.90;1.45;;;;;;;;;;4989932;28;20331;-62
2022/07/03 02:02:48;;;;;;;2.25;1.50;;;;;;;;;;4989636;28;20424;-62
2022/07/03 02:05:26;;;;;;;3.50;1.73;;;;;;;;;;4972685;28;20416;-62
2022/07/03 02:08:03;;;;;;;1.92;1.60;;;;;;;;;;4989073;28;20509;-62
2022/07/03 02:10:33;;;;;;;4.18;1.60;;;;;;;;;;4989522;28;20336;-62
2022/07/03 02:13:08;;;;;;;2.47;1.67;;;;;;;;;;4989602;28;20360;-63
2022/07/03 02:15:34;;;;;;;2.90;1.60;;;;;;;;;;4990151;28;20116;-62
2022/07/03 02:18:11;;;;;;;4.05;1.50;;;;;;;;;;4989238;28;20371;-62
2022/07/03 02:20:40;;;;;;;1.20;1.10;;;;;;;;;;4988839;28;20037;-62
2022/07/03 02:23:05;;;;;;;3.25;1.60;;;;;;;;;;4989656;28;20468;-62
2022/07/03 02:25:40;;;;;;;2.72;1.70;;;;;;;;;;4989034;28;20412;-62
2022/07/03 02:28:30;;;;;;;2.72;1.92;;;;;;;;;;4971515;28;20436;-62
2022/07/03 02:30:59;;;;;;;3.00;1.58;;;;;;;;;;4971434;28;20473;-62
2022/07/03 02:33:26;;;;;;;1.98;1.50;;;;;;;;;;4988977;28;20466;-63
2022/07/03 02:35:53;;;;;;;2.17;1.50;;;;;;;;;;4971309;28;20072;-62
2022/07/03 02:38:22;;;;;;;2.38;1.67;;;;;;;;;;4988845;28;20455;-62
2022/07/03 02:40:53;;;;;;;2.40;1.67;;;;;;;;;;4970840;28;20379;-62
2022/07/03 02:43:28;;;;;;;1.73;1.38;;;;;;;;;;4989115;28;20304;-62
2022/07/03 02:45:56;;;;;;;1.92;1.55;;;;;;;;;;4971708;28;20478;-62
2022/07/03 02:48:28;;;;;;;1.77;1.42;;;;;;;;;;4989467;28;20439;-62
2022/07/03 02:50:58;;;;;;;2.17;1.40;;;;;;;;;;4971957;28;20407;-62
2022/07/03 02:53:53;;;;;;;1.65;1.35;;;;;;;;;;4988980;28;20361;-62
2022/07/03 02:56:36;;;;;;;1.90;1.42;;;;;;;;;;4985851;28;20552;-63
2022/07/03 02:59:19;;;;;;;2.22;1.50;;;;;;;;;;4989718;28;20542;-62
2022/07/03 03:02:26;;;;;;;1.90;1.40;;;;;;;;;;4973507;28;20305;-63
2022/07/03 03:05:02;;;;;;;1.88;1.30;;;;;;;;;;4931902;28;20522;-63
2022/07/03 03:07:53;;;;;;;3.55;1.50;;;;;;;;;;4931596;28;20476;-61
2022/07/03 03:10:20;;;;;;;2.03;1.45;;;;;;;;;;4966649;28;20045;-62
2022/07/03 03:12:47;;;;;;;2.17;1.70;;;;;;;;;;4992816;28;20548;-61
2022/07/03 03:15:13;;;;;;;4.13;1.52;;;;;;;;;;4993333;28;20332;-65
2022/07/03 03:17:44;;;;;;;1.92;1.40;;;;;;;;;;4993455;28;20072;-62
2022/07/03 03:20:15;;;;;;;2.38;1.40;;;;;;;;;;4992941;28;20411;-62
2022/07/03 03:22:47;;;;;;;2.80;1.40;;;;;;;;;;4993368;28;20420;-62
2022/07/03 03:25:13;;;;;;;4.40;1.50;;;;;;;;;;4993518;28;20470;-62
2022/07/03 03:27:38;;;;;;;1.70;1.40;;;;;;;;;;4993465;28;20436;-62
2022/07/03 03:30:06;;;;;;;2.03;1.48;;;;;;;;;;4992331;28;20025;-62
2022/07/03 03:32:34;;;;;;;1.77;1.27;;;;;;;;;;4991975;28;20466;-62
2022/07/03 03:35:01;;;;;;;1.95;1.52;;;;;;;;;;4992307;28;20331;-62
2022/07/03 03:37:26;;;;;;;1.83;1.23;;;;;;;;;;4974983;28;20414;-62
2022/07/03 03:39:51;;;;;;;2.35;1.52;;;;;;;;;;4974141;28;20402;-62
2022/07/03 03:42:17;;;;;;;1.90;1.70;;;;;;;;;;4992305;28;20440;-63
2022/07/03 03:44:42;;;;;;;1.42;1.17;;;;;;;;;;4992002;28;20362;-62
2022/07/03 03:47:09;;;;;;;1.98;1.30;;;;;;;;;;4991621;28;20324;-62
2022/07/03 03:49:34;;;;;;;1.80;1.15;;;;;;;;;;4992293;28;20317;-62
2022/07/03 03:52:00;;;;;;;1.88;1.40;;;;;;;;;;4991568;28;20363;-62
2022/07/03 03:54:29;;;;;;;1.90;1.58;;;;;;;;;;4992303;28;20079;-62
2022/07/03 03:56:55;;;;;;;2.13;1.50;;;;;;;;;;4993132;28;20017;-62
2022/07/03 03:59:20;;;;;;;1.77;1.42;;;;;;;;;;4991624;28;20149;-62
2022/07/03 04:01:47;;;;;;;1.80;1.50;;;;;;;;;;4991469;28;20442;-62
2022/07/03 04:04:17;;;;;;;4.13;1.50;;;;;;;;;;4991312;28;20432;-62
2022/07/03 04:06:43;;;;;;;1.92;1.60;;;;;;;;;;4973444;28;20428;-62
2022/07/03 04:09:09;;;;;;;1.95;1.40;;;;;;;;;;4991939;28;20398;-62
2022/07/03 04:11:38;;;;;;;1.73;1.45;;;;;;;;;;4992361;28;20374;-62
2022/07/03 04:14:03;;;;;;;1.92;1.52;;;;;;;;;;4991963;28;20331;-62
2022/07/03 04:16:28;;;;;;;1.67;1.40;;;;;;;;;;4991389;28;20316;-62
2022/07/03 04:18:54;;;;;;;2.13;1.30;;;;;;;;;;4992493;28;20498;-62
2022/07/03 04:21:19;;;;;;;1.95;1.48;;;;;;;;;;4991672;28;20021;-62
2022/07/03 04:23:45;;;;;;;1.95;1.38;;;;;;;;;;4990651;28;20341;-62
2022/07/03 04:26:10;;;;;;;2.55;1.60;;;;;;;;;;4991611;28;20100;-62
2022/07/03 04:28:35;;;;;;;2.00;1.50;;;;;;;;;;4991125;28;20386;-62
2022/07/03 04:31:01;;;;;;;2.58;1.58;;;;;;;;;;4990501;28;20431;-62
2022/07/03 04:33:26;;;;;;;2.20;1.33;;;;;;;;;;4973871;28;20350;-62
2022/07/03 04:35:52;;;;;;;2.95;1.52;;;;;;;;;;4991051;28;20379;-62
2022/07/03 04:38:17;;;;;;;1.58;1.27;;;;;;;;;;4990863;28;20037;-62
2022/07/03 04:40:42;;;;;;;2.70;1.70;;;;;;;;;;4991115;28;20025;-62
2022/07/03 04:43:08;;;;;;;2.35;1.95;;;;;;;;;;4990787;28;20321;-63
2022/07/03 04:45:33;;;;;;;2.13;1.60;;;;;;;;;;4992200;28;20337;-63
2022/07/03 04:47:59;;;;;;;1.92;1.30;;;;;;;;;;4991295;28;20364;-61
2022/07/03 04:50:25;;;;;;;2.13;1.42;;;;;;;;;;4991392;28;20439;-63
2022/07/03 04:52:50;;;;;;;3.03;1.63;;;;;;;;;;4993013;28;20505;-62
2022/07/03 04:55:16;;;;;;;2.13;1.40;;;;;;;;;;4991404;28;20378;-64
2022/07/03 04:57:41;;;;;;;2.13;1.70;;;;;;;;;;4990964;28;20479;-62
2022/07/03 05:00:07;;;;;;;2.45;1.58;;;;;;;;;;4990774;28;20321;-63
2022/07/03 05:02:32;;;;;;;2.10;1.52;;;;;;;;;;4990654;28;20325;-62
2022/07/03 05:04:58;;;;;;;2.53;1.58;;;;;;;;;;4993853;28;20332;-62
2022/07/03 05:07:23;;;;;;;1.60;1.50;;;;;;;;;;4990699;28;20320;-62
2022/07/03 05:09:49;;;;;;;3.45;1.80;;;;;;;;;;4991291;28;20544;-65
2022/07/03 05:12:14;;;;;;;1.80;1.50;;;;;;;;;;4991000;28;20464;-62
2022/07/03 05:14:39;;;;;;;1.52;1.42;;;;;;;;;;4990724;28;20122;-63
2022/07/03 05:17:05;;;;;;;5.15;1.70;;;;;;;;;;4991004;28;20328;-62
2022/07/03 05:19:30;;;;;;;1.70;1.45;;;;;;;;;;4990729;28;20367;-63
2022/07/03 05:21:56;;;;;;;2.97;1.60;;;;;;;;;;4991195;28;20412;-62
2022/07/03 05:24:21;;;;;;;2.38;1.50;;;;;;;;;;4990411;28;20107;-62
2022/07/03 05:26:47;;;;;;;2.35;1.35;;;;;;;;;;4991282;28;20090;-62
2022/07/03 05:29:12;;;;;;;2.38;1.52;;;;;;;;;;4989884;28;20455;-69
2022/07/03 05:31:37;;;;;;;2.35;1.48;;;;;;;;;;4990431;28;20343;-62
2022/07/03 05:34:03;;;;;;;3.33;1.63;;;;;;;;;;4991945;28;20051;-62
2022/07/03 05:36:28;;;;;;;2.53;1.40;;;;;;;;;;4990328;28;20493;-62
2022/07/03 05:41:38;;;;;;;1.95;1.30;;;;;;;;;;4990151;28;20490;-62
2022/07/03 05:44:03;;;;;;;1.60;1.50;;;;;;;;;;4989902;28;20432;-62
2022/07/03 05:46:29;;;;;;;4.15;1.70;;;;;;;;;;4972566;28;20355;-62
2022/07/03 05:48:54;;;;;;;2.58;1.70;;;;;;;;;;4989567;28;20347;-62
2022/07/03 05:51:20;;;;;;;1.63;1.20;;;;;;;;;;4990302;28;20465;-62
2022/07/03 05:53:45;;;;;;;1.40;1.30;;;;;;;;;;4990533;28;20439;-62
2022/07/03 05:56:10;;;;;;;5.75;1.58;;;;;;;;;;4989937;28;20511;-62
2022/07/03 05:58:36;;;;;;;1.77;1.40;;;;;;;;;;4989283;28;20512;-62
2022/07/03 06:01:01;;;;;;;2.00;1.40;;;;;;;;;;4972371;28;20123;-62
2022/07/03 06:03:26;;;;;;;4.85;1.38;;;;;;;;;;4989604;28;20453;-62
2022/07/03 06:05:52;;;;;;;2.22;1.33;;;;;;;;;;4989453;28;20497;-62
2022/07/03 06:08:17;;;;;;;2.90;1.92;;;;;;;;;;4989310;28;20382;-62
2022/07/03 06:10:43;;;;;;;1.83;1.30;;;;;;;;;;4990967;28;20309;-65
2022/07/03 06:13:08;;;;;;;2.85;1.15;;;;;;;;;;4989763;28;20403;-63
2022/07/03 06:15:33;;;;;;;2.70;1.50;;;;;;;;;;4990172;28;20363;-62
2022/07/03 06:17:59;;;;;;;2.13;1.63;;;;;;;;;;4990762;28;20493;-62
2022/07/03 06:20:24;;;;;;;1.20;1.10;;;;;;;;;;4989347;28;20029;-62
2022/07/03 06:22:50;;;;;;;1.33;1.10;;;;;;;;;;4989712;28;20444;-63
2022/07/03 06:25:15;;;;;;;1.48;1.15;;;;;;;;;;4989298;28;20487;-62
2022/07/03 06:27:42;;;;;;;1.58;1.25;;;;;;;;;;4644230;28;10000983;-62
2022/07/03 06:30:08;;;;;;;1.50;1.17;;;;;;;;;;4988157;28;20087;-66
2022/07/03 06:32:33;;;;;;;1.70;1.42;;;;;;;;;;4990083;28;20299;-62
2022/07/03 06:34:59;;;;;;;1.55;1.20;;;;;;;;;;4989444;28;20320;-62
2022/07/03 06:37:24;;;;;;;1.77;1.40;;;;;;;;;;4988818;28;20359;-62
2022/07/03 06:39:50;;;;;;;1.58;1.35;;;;;;;;;;4990058;28;20029;-62
2022/07/03 06:42:15;;;;;;;1.80;1.48;;;;;;;;;;4989896;28;20447;-63
2022/07/03 06:44:41;;;;;;;1.23;1.08;;;;;;;;;;4988991;28;20107;-61
2022/07/03 06:47:06;;;;;;;1.20;1.10;;;;;;;;;;4989185;28;20029;-61
2022/07/03 06:49:33;;;;;;;1.75;1.27;;;;;;;;;;4989623;28;20391;-62
2022/07/03 06:51:58;;;;;;;2.03;1.40;;;;;;;;;;4989291;28;20442;-62
2022/07/03 06:54:23;;;;;;;1.60;1.38;;;;;;;;;;4990305;28;20435;-62
2022/07/03 06:56:49;;;;;;;1.75;1.40;;;;;;;;;;4971722;28;20048;-62
2022/07/03 06:59:14;;;;;;;1.45;1.27;;;;;;;;;;4988901;28;20411;-62
2022/07/03 07:01:40;;;;;;;1.83;1.25;;;;;;;;;;4990043;28;20351;-62
2022/07/03 07:04:05;;;;;;;1.08;0.98;;;;;;;;;;4971131;28;20320;-62
2022/07/03 07:06:30;;;;;;;3.40;1.38;;;;;;;;;;4988628;28;20112;-64
2022/07/03 07:08:56;;;;;;;3.17;1.30;;;;;;;;;;4988849;28;20352;-62
2022/07/03 07:11:21;;;;;;;2.00;1.63;;;;;;;;;;4989348;28;20435;-62
2022/07/03 07:13:47;;;;;;;1.98;1.33;;;;;;;;;;4988517;28;20374;-62
2022/07/03 07:16:12;;;;;;;2.45;1.45;;;;;;;;;;4970931;28;20466;-62
2022/07/03 07:18:40;;;;;;;1.33;1.17;;;;;;;;;;4989021;28;20450;-62
2022/07/03 07:21:05;;;;;;;1.70;1.35;;;;;;;;;;4989124;28;20079;-64
2022/07/03 07:23:31;;;;;;;2.33;1.48;;;;;;;;;;4988816;28;20514;-64
2022/07/03 07:25:56;;;;;;;1.88;1.60;;;;;;;;;;4988838;28;20093;-62
2022/07/03 07:28:22;;;;;;;3.00;1.30;;;;;;;;;;4989130;28;20051;-61
2022/07/03 07:30:47;;;;;;;2.25;1.40;;;;;;;;;;4989632;28;20052;-62
2022/07/03 07:33:13;;;;;;;1.83;1.05;;;;;;;;;;4988238;28;20455;-63
2022/07/03 07:35:38;;;;;;;3.40;1.50;;;;;;;;;;4988853;28;20363;-62
2022/07/03 07:38:04;;;;;;;1.70;1.50;;;;;;;;;;4989111;28;20171;-62
2022/07/03 07:40:29;;;;;;;1.10;1.00;;;;;;;;;;4989924;28;20368;-62
2022/07/03 07:42:54;;;;;;;1.48;1.08;;;;;;;;;;4988480;28;20494;-62
2022/07/03 07:45:20;;;;;;;3.38;1.40;;;;;;;;;;4989571;28;20430;-62
2022/07/03 07:47:45;;;;;;;1.52;1.25;;;;;;;;;;4989195;28;20428;-62
2022/07/03 07:50:11;;;;;;;2.78;1.67;;;;;;;;;;4992508;28;20363;-62
2022/07/03 07:52:37;;;;;;;1.98;1.23;;;;;;;;;;4992504;28;20509;-62
2022/07/03 07:55:05;;;;;;;2.35;1.38;;;;;;;;;;4991876;28;20509;-63
2022/07/03 07:57:37;;;;;;;1.52;1.20;;;;;;;;;;4991707;28;20025;-63
2022/07/03 08:00:07;;;;;;;1.98;1.48;;;;;;;;;;4974035;28;20420;-62
2022/07/03 08:05:35;;;;;;;2.17;1.38;;;;;;;;;;4993101;28;20482;-62
2022/07/03 08:08:13;;;;;;;1.85;1.30;;;;;;;;;;4991963;28;20359;-61
2022/07/03 08:10:49;;;;;;;1.80;1.55;;;;;;;;;;4992010;28;20395;-61
2022/07/03 08:13:16;;;;;;;3.38;1.15;;;;;;;;;;4992100;28;20431;-62
2022/07/03 08:15:42;;;;;;;1.58;1.20;;;;;;;;;;4991485;28;20047;-63
2022/07/03 08:18:08;;;;;;;1.98;1.42;;;;;;;;;;4991391;28;20463;-62
2022/07/03 08:20:34;;;;;;;1.80;1.48;;;;;;;;;;4991568;28;20388;-62
2022/07/03 08:22:59;;;;;;;3.53;1.38;;;;;;;;;;4991826;28;20341;-61
2022/07/03 08:25:25;;;;;;;1.60;1.30;;;;;;;;;;4991284;28;20079;-62
2022/07/03 08:27:51;;;;;;;1.50;1.30;;;;;;;;;;4991627;28;20427;-62
2022/07/03 08:30:17;;;;;;;1.83;1.52;;;;;;;;;;4992813;28;20356;-61
2022/07/03 08:32:50;;;;;;;1.77;1.23;;;;;;;;;;4991113;28;20471;-62
2022/07/03 08:35:17;;;;;;;2.40;1.55;;;;;;;;;;4991739;28;20416;-62
2022/07/03 08:37:43;;;;;;;1.52;1.40;;;;;;;;;;4991069;28;20301;-62
2022/07/03 08:40:16;;;;;;;2.63;1.42;;;;;;;;;;4992764;28;20516;-62
2022/07/03 08:43:07;;;;;;;2.00;1.40;;;;;;;;;;4991854;28;20379;-62
2022/07/03 08:45:33;;;;;;;1.50;1.00;;;;;;;;;;4987690;28;20484;-61
2022/07/03 08:47:59;;;;;;;1.42;1.30;;;;;;;;;;4973610;28;20423;-61
2022/07/03 08:50:26;;;;;;;2.58;1.10;;;;;;;;;;4991678;28;20456;-61
2022/07/03 08:52:51;;;;;;;2.75;1.35;;;;;;;;;;4991142;28;20380;-61
2022/07/03 08:55:18;;;;;;;1.30;1.20;;;;;;;;;;4973946;28;20419;-62
2022/07/03 08:57:45;;;;;;;1.88;1.20;;;;;;;;;;4991366;28;20339;-62
2022/07/03 09:00:13;;;;;;;1.83;1.33;;;;;;;;;;4972698;28;20048;-62
2022/07/03 09:02:43;;;;;;;1.50;1.00;;;;;;;;;;4990730;28;20161;-63
2022/07/03 09:05:13;;;;;;;1.52;1.10;;;;;;;;;;4990693;28;20028;-62
2022/07/03 09:07:40;;;;;;;3.95;1.27;;;;;;;;;;4991110;28;20048;-62
2022/07/03 09:10:14;;;;;;;1.90;1.27;;;;;;;;;;4990847;28;20506;-62
2022/07/03 09:12:39;;;;;;;1.63;1.27;;;;;;;;;;4990803;28;20436;-62
2022/07/03 09:15:07;;;;;;;1.90;1.15;;;;;;;;;;4990370;28;20336;-61
2022/07/03 09:17:32;;;;;;;1.85;1.30;;;;;;;;;;4972722;28;20502;-61
2022/07/03 09:19:59;;;;;;;1.75;1.17;;;;;;;;;;4992008;28;20506;-62
2022/07/03 09:22:27;;;;;;;2.10;1.40;;;;;;;;;;4990661;28;20432;-62
2022/07/03 09:25:06;;;;;;;1.45;1.25;;;;;;;;;;4990054;28;20071;-61
2022/07/03 09:27:32;;;;;;;1.52;1.15;;;;;;;;;;4990358;28;20029;-61
2022/07/03 09:30:01;;;;;;;1.15;1.00;;;;;;;;;;4991428;28;20512;-62
2022/07/03 09:32:39;;;;;;;3.03;1.20;;;;;;;;;;4990144;28;20363;-61
2022/07/03 09:35:24;;;;;;;1.40;1.23;;;;;;;;;;4990143;28;20523;-62
2022/07/03 09:37:57;;;;;;;1.83;1.42;;;;;;;;;;4991797;28;20455;-62
2022/07/03 09:40:24;;;;;;;1.52;1.15;;;;;;;;;;4972300;28;20033;-63
2022/07/03 09:43:04;;;;;;;1.25;1.08;;;;;;;;;;4990912;28;20451;-62
2022/07/03 09:45:55;;;;;;;1.38;1.10;;;;;;;;;;4990205;28;20439;-61
2022/07/03 09:48:24;;;;;;;1.40;1.10;;;;;;;;;;4990195;28;20520;-62
2022/07/03 09:51:07;;;;;;;1.20;1.02;;;;;;;;;;4990119;28;20451;-63
2022/07/03 09:53:56;;;;;;;1.23;1.13;;;;;;;;;;4989209;28;20447;-62
2022/07/03 09:56:23;;;;;;;1.20;1.10;;;;;;;;;;4989513;28;20309;-61
2022/07/03 09:59:09;;;;;;;1.38;1.00;;;;;;;;;;4989899;28;20339;-61
2022/07/03 10:01:36;;;;;;;1.20;0.98;;;;;;;;;;4989439;28;20454;-61
2022/07/03 10:04:21;;;;;;;1.70;1.25;;;;;;;;;;4989661;28;20311;-62
2022/07/03 10:06:55;;;;;;;1.40;1.30;;;;;;;;;;4989363;28;20099;-61
2022/07/03 10:09:24;;;;;;;1.20;1.10;;;;;;;;;;4990040;28;20376;-62
2022/07/03 10:11:49;;;;;;;1.40;1.30;;;;;;;;;;4989005;28;20419;-62
2022/07/03 10:14:17;;;;;;;1.67;1.27;;;;;;;;;;4989267;28;20075;-61
2022/07/03 10:16:43;;;;;;;1.20;1.10;;;;;;;;;;4991278;28;20028;-61
2022/07/03 10:19:14;;;;;;;1.50;1.10;;;;;;;;;;4989754;28;20504;-62
2022/07/03 10:21:41;;;;;;;1.05;0.88;;;;;;;;;;4971542;28;20410;-61
2022/07/03 10:24:07;;;;;;;2.03;1.70;;;;;;;;;;4989542;28;20148;-62
2022/07/03 10:26:33;;;;;;;1.63;1.08;;;;;;;;;;4989706;28;20537;-62
2022/07/03 10:28:59;;;;;;;2.10;1.35;;;;;;;;;;4989573;28;20448;-62
2022/07/03 10:31:24;;;;;;;1.30;1.15;;;;;;;;;;4970828;28;20100;-61
2022/07/03 10:33:51;;;;;;;1.35;1.17;;;;;;;;;;4988743;28;20348;-61
2022/07/03 10:36:17;;;;;;;1.70;1.13;;;;;;;;;;4989390;28;20475;-62
2022/07/03 10:38:46;;;;;;;1.30;1.08;;;;;;;;;;4989074;28;20443;-61
2022/07/03 10:46:47;;;;;;;2.00;1.20;;;;;;;;;;4989559;28;20429;-61
2022/07/03 10:49:13;;;;;;;1.35;1.13;;;;;;;;;;4989169;28;20025;-62
2022/07/03 10:51:44;;;;;;;2.13;1.08;;;;;;;;;;4989070;28;20060;-61
2022/07/03 10:54:14;;;;;;;3.72;1.00;;;;;;;;;;4988956;28;20467;-61
2022/07/03 10:56:57;;;;;;;1.30;1.20;;;;;;;;;;4988869;28;20424;-61
2022/07/03 10:59:29;;;;;;;1.48;1.25;;;;;;;;;;4988807;28;20451;-61
2022/07/03 11:02:20;;;;;;;1.80;1.55;;;;;;;;;;4971162;28;20355;-62
2022/07/03 11:05:01;;;;;;;2.40;1.63;;;;;;;;;;4970757;28;20119;-62
2022/07/03 11:07:27;;;;;;;1.23;1.10;;;;;;;;;;4988835;28;20521;-62
2022/07/03 11:10:14;;;;;;;1.13;0.98;;;;;;;;;;4989073;28;20464;-62
2022/07/03 11:13:00;;;;;;;2.30;1.20;;;;;;;;;;4988768;28;20025;-64
2022/07/03 11:15:50;;;;;;;1.10;1.00;;;;;;;;;;4990371;28;20501;-62
2022/07/03 11:18:30;;;;;;;1.40;0.80;;;;;;;;;;4989219;28;20347;-62
2022/07/03 11:21:18;;;;;;;1.00;0.90;;;;;;;;;;4988729;28;20473;-62
2022/07/03 11:24:11;;;;;;;0.88;0.88;;;;;;;;;;4982462;28;20478;-62
2022/07/03 11:26:37;;;;;;;0.70;0.70;;;;;;;;;;4993218;28;20396;-62
2022/07/03 11:29:02;;;;;;;0.68;0.60;;;;;;;;;;4993245;28;20435;-62
2022/07/03 11:31:28;;;;;;;1.50;0.70;;;;;;;;;;4993766;28;20036;-62
2022/07/03 11:33:53;;;;;;;1.15;0.82;;;;;;;;;;4993458;28;20355;-62
2022/07/03 11:36:21;;;;;;;1.02;0.88;;;;;;;;;;4992468;28;20366;-62
2022/07/03 11:39:06;;;;;;;3.08;1.00;;;;;;;;;;4992311;28;20520;-62
2022/07/03 11:41:34;;;;;;;1.55;1.05;;;;;;;;;;4993256;28;20402;-62
2022/07/03 11:44:02;;;;;;;1.35;0.93;;;;;;;;;;4992433;28;20340;-63
2022/07/03 11:46:32;;;;;;;0.60;0.60;;;;;;;;;;4991734;28;20829;-62
2022/07/03 11:49:12;;;;;;;1.08;0.82;;;;;;;;;;4992664;28;20024;-63
2022/07/03 11:51:39;;;;;;;0.80;0.77;;;;;;;;;;4974327;28;20043;-62
2022/07/03 11:54:05;;;;;;;0.80;0.80;;;;;;;;;;4992393;28;20395;-63
2022/07/03 11:56:31;;;;;;;1.10;1.00;;;;;;;;;;4992902;28;20374;-63
2022/07/03 11:58:58;;;;;;;1.08;0.90;;;;;;;;;;4991964;28;20037;-62
2022/07/03 12:01:24;;;;;;;0.85;0.70;;;;;;;;;;4992923;28;20345;-62
2022/07/03 12:03:50;;;;;;;0.77;0.68;;;;;;;;;;4992453;28;20395;-62
2022/07/03 12:06:16;;;;;;;1.70;0.90;;;;;;;;;;4991885;28;20075;-62
2022/07/03 12:08:46;;;;;;;0.70;0.70;;;;;;;;;;4991998;28;20122;-63
2022/07/03 12:11:15;;;;;;;0.75;0.70;;;;;;;;;;4973682;28;20434;-62
2022/07/03 12:13:41;;;;;;;0.82;0.70;;;;;;;;;;4993147;28;20047;-62
2022/07/03 12:16:13;;;;;;;1.05;0.73;;;;;;;;;;4991896;28;20420;-62
2022/07/03 12:18:44;;;;;;;1.63;0.95;;;;;;;;;;4973378;28;20421;-62
2022/07/03 12:21:10;;;;;;;1.15;0.80;;;;;;;;;;4991346;28;20359;-64
2022/07/03 12:23:44;;;;;;;1.30;0.80;;;;;;;;;;4991339;28;20036;-63
2022/07/03 12:26:11;;;;;;;2.08;0.80;;;;;;;;;;4991427;28;20440;-62
2022/07/03 12:28:37;;;;;;;2.15;1.02;;;;;;;;;;4991306;28;20348;-62
2022/07/03 12:31:02;;;;;;;0.77;0.77;;;;;;;;;;4991602;28;20426;-62
2022/07/03 12:33:30;;;;;;;1.55;0.75;;;;;;;;;;4990468;28;20409;-62
2022/07/03 12:36:06;;;;;;;1.10;0.90;;;;;;;;;;4974084;28;20347;-62
2022/07/03 12:38:33;;;;;;;1.58;0.80;;;;;;;;;;4991542;28;20327;-62
2022/07/03 12:41:06;;;;;;;0.70;0.70;;;;;;;;;;4991015;28;20462;-73
2022/07/03 12:43:38;;;;;;;0.80;0.80;;;;;;;;;;4992102;28;20416;-61
2022/07/03 12:46:48;;;;;;;0.75;0.75;;;;;;;;;;4991255;28;20112;-62
2022/07/03 12:49:13;;;;;;;1.13;0.88;;;;;;;;;;4957925;28;20333;-62
2022/07/03 12:51:40;;;;;;;1.58;1.08;;;;;;;;;;4973061;28;20052;-62
2022/07/03 12:54:31;;;;;;;0.80;0.75;;;;;;;;;;4990854;28;20055;-62
2022/07/03 13:00:10;;;;;;;0.90;0.80;;;;;;;;;;4991030;28;20356;-62
2022/07/03 13:02:37;;;;;;;0.95;0.77;;;;;;;;;;4990875;28;20468;-62
2022/07/03 13:05:17;;;;;;;1.35;0.90;;;;;;;;;;4973032;28;20017;-62
2022/07/03 13:07:44;;;;;;;0.80;0.70;;;;;;;;;;4990574;28;20343;-62
2022/07/03 13:10:10;;;;;;;1.00;0.90;;;;;;;;;;4990661;28;20439;-62
2022/07/03 13:12:49;;;;;;;4.15;0.85;;;;;;;;;;4990817;28;20405;-62
2022/07/03 13:15:15;;;;;;;1.05;0.90;;;;;;;;;;4972788;28;20424;-62
2022/07/03 13:18:00;;;;;;;1.00;0.90;;;;;;;;;;4990430;28;20033;-62
2022/07/03 13:20:30;;;;;;;0.90;0.80;;;;;;;;;;4990654;28;20478;-62
2022/07/03 13:23:00;;;;;;;1.27;0.90;;;;;;;;;;4990236;28;20351;-62
2022/07/03 13:25:27;;;;;;;0.75;0.73;;;;;;;;;;4989962;28;20468;-62
2022/07/03 13:27:52;;;;;;;1.10;1.00;;;;;;;;;;4991600;28;20478;-62
2022/07/03 13:30:19;;;;;;;1.38;1.00;;;;;;;;;;4972070;28;20423;-62
2022/07/03 13:32:45;;;;;;;1.17;1.05;;;;;;;;;;4990609;28;20033;-62
2022/07/03 13:35:11;;;;;;;1.63;0.85;;;;;;;;;;4990129;28;20084;-62
2022/07/03 13:37:37;;;;;;;0.93;0.80;;;;;;;;;;4991739;28;20496;-61
2022/07/03 13:40:03;;;;;;;1.65;1.00;;;;;;;;;;4991308;28;20451;-62
2022/07/03 13:42:29;;;;;;;1.10;1.00;;;;;;;;;;4990114;28;20467;-62
2022/07/03 13:44:54;;;;;;;1.38;1.08;;;;;;;;;;4989830;28;20420;-61
2022/07/03 13:47:20;;;;;;;2.22;1.30;;;;;;;;;;4989455;28;20475;-62
2022/07/03 13:49:45;;;;;;;3.20;1.02;;;;;;;;;;4989759;28;20059;-61
2022/07/03 13:52:11;;;;;;;1.25;0.95;;;;;;;;;;4989947;28;20422;-62
2022/07/03 13:54:36;;;;;;;0.80;0.80;;;;;;;;;;4990120;28;20443;-62
2022/07/03 13:57:02;;;;;;;1.25;1.05;;;;;;;;;;4990179;28;20134;-61
2022/07/03 13:59:30;;;;;;;1.65;1.27;;;;;;;;;;4990484;28;20432;-62
2022/07/03 14:01:56;;;;;;;1.27;1.15;;;;;;;;;;4989783;28;20351;-61
2022/07/03 14:04:22;;;;;;;1.40;1.20;;;;;;;;;;4990117;28;20466;-61
2022/07/03 14:06:47;;;;;;;1.25;1.10;;;;;;;;;;4989772;28;20343;-62
2022/07/03 14:09:13;;;;;;;1.00;0.88;;;;;;;;;;4989593;28;20029;-62
2022/07/03 14:11:38;;;;;;;1.35;1.05;;;;;;;;;;4991271;28;20344;-62
2022/07/03 14:14:03;;;;;;;3.45;1.15;;;;;;;;;;4990024;28;20331;-63
2022/07/03 14:16:29;;;;;;;1.20;1.10;;;;;;;;;;4989497;28;20467;-62
2022/07/03 14:18:54;;;;;;;2.25;1.00;;;;;;;;;;4989573;28;20447;-61
2022/07/03 14:21:19;;;;;;;2.15;1.20;;;;;;;;;;4989533;28;20423;-62
2022/07/03 14:23:45;;;;;;;1.80;1.20;;;;;;;;;;4988894;28;20332;-62
2022/07/03 14:26:10;;;;;;;1.08;0.98;;;;;;;;;;4989359;28;20351;-61
2022/07/03 14:33:45;;;;;;;1.65;1.23;;;;;;;;;;4989467;28;20525;-62
2022/07/03 14:36:10;;;;;;;2.78;1.23;;;;;;;;;;4989859;28;20435;-62
2022/07/03 14:38:36;;;;;;;2.10;1.27;;;;;;;;;;4989110;28;20444;-62
2022/07/03 14:41:01;;;;;;;1.50;1.27;;;;;;;;;;4989037;28;20349;-61
2022/07/03 14:43:27;;;;;;;1.50;1.00;;;;;;;;;;4989231;28;20402;-62
2022/07/03 14:45:52;;;;;;;1.52;1.20;;;;;;;;;;4989218;28;20029;-62
2022/07/03 14:48:18;;;;;;;1.23;1.10;;;;;;;;;;4970993;28;20502;-62
2022/07/03 14:50:43;;;;;;;1.15;1.05;;;;;;;;;;4990897;28;20312;-62
2022/07/03 14:53:09;;;;;;;1.15;1.00;;;;;;;;;;4989967;28;20412;-62
2022/07/03 14:55:39;;;;;;;1.67;1.30;;;;;;;;;;4990865;28;20043;-61
2022/07/03 14:58:14;;;;;;;1.48;1.08;;;;;;;;;;4991684;28;20442;-63
2022/07/03 15:00:42;;;;;;;1.25;1.02;;;;;;;;;;4993699;28;20359;-62
2022/07/03 15:03:32;;;;;;;1.40;1.10;;;;;;;;;;4993425;28;20312;-61
2022/07/03 15:06:07;;;;;;;1.27;1.15;;;;;;;;;;4992747;28;20033;-63
2022/07/03 15:08:50;;;;;;;1.20;1.00;;;;;;;;;;4993847;28;20076;-61
2022/07/03 15:14:06;;;;;;;2.63;1.20;;;;;;;;;;4993555;28;20550;-62
2022/07/03 15:16:32;;;;;;;1.63;1.25;;;;;;;;;;4992530;28;20095;-62
2022/07/03 15:19:01;;;;;;;1.73;1.10;;;;;;;;;;4992903;28;20033;-62